createdAt,value
2023-10-08T00:02:15.278Z,22.89
2023-10-08T00:04:45.408Z,22.86
2023-10-08T00:07:13.462Z,22.67
2023-10-08T00:09:41.537Z,22.61
2023-10-08T00:12:11.377Z,22.72
2023-10-08T00:14:45.274Z,22.50
2023-10-08T00:17:15.573Z,22.59
2023-10-08T00:19:53.939Z,22.36
2023-10-08T00:22:23.353Z,22.18
2023-10-08T00:24:58.621Z,22.35
2023-10-08T00:27:28.761Z,22.35
2023-10-08T00:29:57.506Z,22.44
2023-10-08T00:32:27.272Z,22.07
2023-10-08T00:34:56.099Z,22.28
2023-10-08T00:37:27.986Z,22.00
2023-10-08T00:39:58.059Z,22.05
2023-10-08T00:42:26.525Z,22.01
2023-10-08T00:44:55.366Z,21.70
2023-10-08T00:47:27.667Z,21.83
2023-10-08T00:50:05.451Z,21.45
2023-10-08T00:52:41.436Z,21.29
2023-10-08T00:55:15.638Z,21.13
2023-10-08T00:57:49.173Z,20.75
2023-10-08T01:00:23.577Z,20.64
2023-10-08T01:03:01.346Z,20.33
2023-10-08T01:05:43.813Z,19.93
2023-10-08T01:08:15.831Z,19.76
2023-10-08T01:10:47.953Z,19.40
2023-10-08T01:13:20.654Z,19.10
2023-10-08T01:15:52.314Z,19.01
2023-10-08T01:18:30.335Z,18.80
2023-10-08T01:21:07.104Z,18.61
2023-10-08T01:23:36.723Z,18.35
2023-10-08T01:26:12.841Z,18.26
2023-10-08T01:28:43.949Z,18.21
2023-10-08T01:31:14.130Z,18.07
2023-10-08T01:33:48.628Z,17.87
2023-10-08T01:36:16.730Z,17.86
2023-10-08T01:38:49.944Z,17.66
2023-10-08T01:41:21.177Z,17.75
2023-10-08T01:43:50.971Z,17.77
2023-10-08T01:46:23.045Z,17.75
2023-10-08T01:48:54.692Z,17.62
2023-10-08T01:51:30.004Z,17.58
2023-10-08T01:54:00.483Z,17.62
2023-10-08T01:56:28.636Z,17.51
2023-10-08T01:58:56.844Z,17.51
2023-10-08T02:01:25.243Z,17.51
2023-10-08T02:03:53.787Z,17.51
2023-10-08T02:06:22.328Z,17.49
2023-10-08T02:08:50.495Z,17.37
2023-10-08T02:11:21.496Z,17.29
2023-10-08T02:13:49.847Z,17.24
2023-10-08T02:16:20.449Z,17.26
2023-10-08T02:18:50.609Z,17.29
2023-10-08T02:21:21.724Z,17.22
2023-10-08T02:23:49.819Z,17.17
2023-10-08T02:26:20.461Z,17.00
2023-10-08T02:28:51.981Z,17.07
2023-10-08T02:31:20.259Z,17.11
2023-10-08T02:33:48.558Z,17.11
2023-10-08T02:36:16.558Z,17.04
2023-10-08T02:38:44.824Z,16.95
2023-10-08T02:41:18.563Z,17.10
2023-10-08T02:43:49.656Z,17.06
2023-10-08T02:46:20.327Z,17.08
2023-10-08T02:48:48.830Z,17.13
2023-10-08T02:51:16.871Z,17.09
2023-10-08T02:53:45.439Z,17.06
2023-10-08T02:56:16.756Z,17.14
2023-10-08T02:58:45.594Z,16.99
2023-10-08T03:01:14.343Z,17.06
2023-10-08T03:03:44.554Z,16.90
2023-10-08T03:06:15.945Z,16.93
2023-10-08T03:08:44.299Z,16.80
2023-10-08T03:11:18.396Z,16.83
2023-10-08T03:13:47.835Z,16.65
2023-10-08T03:16:16.280Z,16.75
2023-10-08T03:18:51.153Z,16.80
2023-10-08T03:21:25.392Z,16.74
2023-10-08T03:23:58.387Z,16.73
2023-10-08T03:26:35.368Z,16.74
2023-10-08T03:29:08.454Z,16.66
2023-10-08T03:31:51.212Z,16.94
2023-10-08T03:34:21.585Z,16.73
2023-10-08T03:36:51.665Z,16.91
2023-10-08T03:39:20.935Z,16.73
2023-10-08T03:42:08.232Z,17.36
2023-10-08T03:44:38.999Z,17.40
2023-10-08T03:47:11.985Z,17.46
2023-10-08T03:49:46.995Z,16.46
2023-10-08T03:52:16.140Z,16.22
2023-10-08T03:54:49.614Z,16.26
2023-10-08T03:57:26.318Z,16.28
2023-10-08T03:59:59.800Z,16.07
2023-10-08T04:02:40.914Z,15.83
2023-10-08T04:05:20.699Z,15.91
2023-10-08T04:08:02.699Z,15.68
2023-10-08T04:10:50.565Z,15.60
2023-10-08T04:13:19.596Z,15.72
2023-10-08T04:15:47.892Z,15.75
2023-10-08T04:18:16.155Z,15.71
2023-10-08T04:21:01.477Z,15.75
2023-10-08T04:23:30.826Z,15.64
2023-10-08T04:25:59.926Z,15.57
2023-10-08T04:28:35.702Z,15.65
2023-10-08T04:31:15.916Z,15.49
2023-10-08T04:33:46.486Z,15.41
2023-10-08T04:36:19.310Z,15.51
2023-10-08T04:38:49.289Z,15.45
2023-10-08T04:41:20.422Z,15.47
2023-10-08T04:43:50.768Z,15.42
2023-10-08T04:46:34.999Z,15.49
2023-10-08T04:49:08.495Z,15.52
2023-10-08T04:51:45.078Z,15.56
2023-10-08T04:54:17.627Z,15.56
2023-10-08T04:56:46.611Z,15.57
2023-10-08T04:59:15.145Z,15.55
2023-10-08T05:01:48.849Z,15.55
2023-10-08T05:04:30.991Z,15.61
2023-10-08T05:07:18.706Z,15.68
2023-10-08T05:09:53.450Z,15.73
2023-10-08T05:12:35.873Z,15.71
2023-10-08T05:15:21.878Z,15.73
2023-10-08T05:18:10.002Z,15.81
2023-10-08T05:20:58.117Z,16.24
2023-10-08T05:23:45.496Z,16.44
2023-10-08T05:26:22.264Z,15.89
2023-10-08T05:29:02.371Z,15.82
2023-10-08T05:31:48.389Z,15.84
2023-10-08T05:34:19.092Z,15.87
2023-10-08T05:37:23.139Z,15.79
2023-10-08T05:39:56.977Z,15.83
2023-10-08T05:42:33.324Z,15.78
2023-10-08T05:45:15.387Z,15.78
2023-10-08T05:48:03.674Z,15.82
2023-10-08T05:50:40.463Z,15.77
2023-10-08T05:53:30.749Z,15.66
2023-10-08T05:56:17.741Z,15.62
2023-10-08T05:59:01.241Z,15.66
2023-10-08T06:01:41.893Z,15.69
2023-10-08T06:04:42.916Z,15.70
2023-10-08T06:07:18.102Z,15.61
2023-10-08T06:10:02.582Z,15.58
2023-10-08T06:12:46.123Z,15.57
2023-10-08T06:15:13.585Z,15.58
2023-10-08T06:18:05.915Z,15.55
2023-10-08T06:20:38.191Z,15.47
2023-10-08T06:23:08.575Z,15.43
2023-10-08T06:25:45.898Z,15.42
2023-10-08T06:28:21.167Z,15.44
2023-10-08T06:30:50.414Z,15.46
2023-10-08T06:33:18.694Z,15.44
2023-10-08T06:35:48.066Z,15.42
2023-10-08T06:38:19.837Z,15.43
2023-10-08T06:40:49.135Z,15.43
2023-10-08T06:43:23.220Z,15.46
2023-10-08T06:45:54.255Z,15.46
2023-10-08T06:48:25.272Z,15.65
2023-10-08T06:50:58.484Z,15.66
2023-10-08T06:53:30.871Z,15.71
2023-10-08T06:55:59.561Z,15.69
2023-10-08T06:58:29.768Z,15.75
2023-10-08T07:00:59.800Z,15.76
2023-10-08T07:03:29.301Z,15.86
2023-10-08T07:06:03.699Z,15.87
2023-10-08T07:08:33.714Z,15.88
2023-10-08T07:11:07.744Z,15.90
2023-10-08T07:13:38.481Z,15.95
2023-10-08T07:16:12.311Z,15.97
2023-10-08T07:18:43.124Z,15.98
2023-10-08T07:21:14.054Z,15.96
2023-10-08T07:23:57.509Z,15.95
2023-10-08T07:26:37.207Z,15.91
2023-10-08T07:29:10.062Z,15.99
2023-10-08T07:31:42.729Z,15.93
2023-10-08T07:34:26.706Z,15.89
2023-10-08T07:36:56.779Z,15.97
2023-10-08T07:39:34.408Z,15.91
2023-10-08T07:42:06.326Z,16.01
2023-10-08T07:44:37.790Z,16.01
2023-10-08T07:47:11.300Z,16.03
2023-10-08T07:49:40.085Z,15.99
2023-10-08T07:52:08.108Z,15.94
2023-10-08T07:54:36.648Z,15.99
2023-10-08T07:57:12.787Z,16.02
2023-10-08T07:59:47.644Z,16.07
2023-10-08T08:02:18.949Z,16.07
2023-10-08T08:04:51.855Z,16.03
2023-10-08T08:07:20.988Z,16.13
2023-10-08T08:09:53.408Z,16.04
2023-10-08T08:12:23.901Z,16.09
2023-10-08T08:17:23.714Z,16.22
2023-10-08T08:19:54.587Z,16.26
2023-10-08T08:22:24.983Z,16.37
2023-10-08T08:24:58.948Z,16.30
2023-10-08T08:27:33.118Z,16.46
2023-10-08T08:30:13.852Z,16.59
2023-10-08T08:32:47.093Z,16.74
2023-10-08T08:35:18.102Z,16.77
2023-10-08T08:37:48.432Z,16.76
2023-10-08T08:40:21.765Z,16.92
2023-10-08T08:42:53.479Z,17.00
2023-10-08T08:45:25.799Z,17.00
2023-10-08T08:47:55.875Z,17.03
2023-10-08T08:50:25.073Z,17.12
2023-10-08T08:52:54.261Z,16.97
2023-10-08T08:55:24.150Z,16.94
2023-10-08T08:57:53.868Z,17.06
2023-10-08T09:00:26.657Z,17.10
2023-10-08T09:02:58.969Z,17.38
2023-10-08T09:05:28.819Z,17.46
2023-10-08T09:08:04.150Z,17.54
2023-10-08T09:10:37.995Z,17.70
2023-10-08T09:13:08.642Z,17.86
2023-10-08T09:15:38.494Z,18.00
2023-10-08T09:18:07.887Z,18.04
2023-10-08T09:20:44.298Z,18.01
2023-10-08T09:23:14.840Z,18.25
2023-10-08T09:25:44.956Z,18.30
2023-10-08T09:28:14.993Z,18.46
2023-10-08T09:30:46.477Z,18.59
2023-10-08T09:33:16.100Z,18.55
2023-10-08T09:35:45.665Z,18.58
2023-10-08T09:38:14.640Z,18.71
2023-10-08T09:40:45.699Z,18.79
2023-10-08T09:43:19.132Z,19.01
2023-10-08T09:45:58.762Z,19.13
2023-10-08T09:48:31.364Z,19.12
2023-10-08T09:51:01.649Z,19.14
2023-10-08T09:53:40.886Z,19.19
2023-10-08T09:56:16.823Z,19.20
2023-10-08T09:58:46.704Z,19.26
2023-10-08T10:01:18.107Z,19.22
2023-10-08T10:03:47.430Z,19.30
2023-10-08T10:06:18.583Z,19.26
2023-10-08T10:08:50.971Z,19.53
2023-10-08T10:11:19.425Z,19.47
2023-10-08T10:14:01.406Z,19.58
2023-10-08T10:16:31.092Z,19.53
2023-10-08T10:19:01.983Z,19.42
2023-10-08T10:21:35.095Z,19.43
2023-10-08T10:24:07.049Z,19.43
2023-10-08T10:26:36.603Z,19.48
2023-10-08T10:29:24.132Z,19.32
2023-10-08T10:31:55.247Z,19.26
2023-10-08T10:34:28.727Z,19.38
2023-10-08T10:37:00.221Z,19.49
2023-10-08T10:39:31.428Z,19.74
2023-10-08T10:42:03.623Z,19.83
2023-10-08T10:44:33.284Z,19.87
2023-10-08T10:47:20.198Z,20.04
2023-10-08T10:49:54.082Z,20.12
2023-10-08T10:52:34.207Z,20.09
2023-10-08T10:55:19.618Z,19.94
2023-10-08T10:57:56.542Z,19.82
2023-10-08T11:00:43.318Z,19.78
2023-10-08T11:03:18.450Z,19.72
2023-10-08T11:05:52.551Z,19.67
2023-10-08T11:08:24.261Z,19.69
2023-10-08T11:10:59.506Z,19.73
2023-10-08T11:13:29.860Z,19.52
2023-10-08T11:16:00.620Z,19.46
2023-10-08T11:18:31.083Z,19.50
2023-10-08T11:21:15.199Z,19.47
2023-10-08T11:23:47.895Z,19.69
2023-10-08T11:26:17.348Z,19.91
2023-10-08T11:28:48.433Z,20.13
2023-10-08T11:31:21.290Z,20.32
2023-10-08T11:33:56.057Z,20.46
2023-10-08T11:36:28.943Z,20.70
2023-10-08T11:39:02.199Z,20.94
2023-10-08T11:41:31.426Z,21.13
2023-10-08T11:44:00.265Z,21.06
2023-10-08T11:46:34.098Z,21.22
2023-10-08T11:49:06.194Z,21.26
2023-10-08T11:51:35.580Z,21.47
2023-10-08T11:54:06.758Z,21.77
2023-10-08T11:56:35.487Z,21.90
2023-10-08T11:59:09.803Z,22.22
2023-10-08T12:01:39.084Z,22.40
2023-10-08T12:04:14.416Z,22.44
2023-10-08T12:06:48.387Z,22.73
2023-10-08T12:09:17.142Z,22.91
2023-10-08T12:11:45.259Z,23.09
2023-10-08T12:14:13.626Z,22.99
2023-10-08T12:16:43.033Z,23.04
2023-10-08T12:19:17.798Z,22.94
2023-10-08T12:21:47.584Z,22.68
2023-10-08T12:24:16.466Z,22.85
2023-10-08T12:26:47.964Z,22.90
2023-10-08T12:29:18.322Z,22.80
2023-10-08T12:31:48.617Z,22.80
2023-10-08T12:34:18.631Z,22.88
2023-10-08T12:36:47.222Z,22.73
2023-10-08T12:39:16.735Z,22.62
2023-10-08T12:41:46.121Z,22.63
2023-10-08T12:44:16.914Z,22.73
2023-10-08T12:46:50.036Z,22.65
2023-10-08T12:49:22.338Z,22.50
2023-10-08T12:51:50.771Z,22.42
2023-10-08T12:54:23.126Z,22.24
2023-10-08T12:56:55.999Z,21.91
2023-10-08T12:59:25.543Z,21.68
2023-10-08T13:01:55.772Z,21.47
2023-10-08T13:04:29.274Z,21.32
2023-10-08T13:07:02.226Z,21.13
2023-10-08T13:09:32.383Z,20.96
2023-10-08T13:12:01.810Z,20.71
2023-10-08T13:14:30.043Z,20.77
2023-10-08T13:16:58.184Z,20.92
2023-10-08T13:19:28.395Z,20.98
2023-10-08T13:21:56.386Z,21.03
2023-10-08T13:24:26.487Z,21.07
2023-10-08T13:26:54.969Z,21.00
2023-10-08T13:29:23.144Z,20.92
2023-10-08T13:31:51.373Z,20.80
2023-10-08T13:34:20.048Z,20.88
2023-10-08T13:36:50.577Z,21.00
2023-10-08T13:39:22.431Z,20.91
2023-10-08T13:41:50.798Z,20.95
2023-10-08T13:44:20.266Z,21.02
2023-10-08T13:46:50.913Z,21.18
2023-10-08T13:49:20.191Z,21.29
2023-10-08T13:51:57.204Z,21.45
2023-10-08T13:54:30.208Z,21.57
2023-10-08T13:57:00.294Z,21.75
2023-10-08T13:59:32.527Z,21.69
2023-10-08T14:02:03.552Z,21.64
2023-10-08T14:04:35.965Z,21.52
2023-10-08T14:07:05.710Z,21.45
2023-10-08T14:09:37.858Z,21.48
2023-10-08T14:12:08.853Z,21.52
2023-10-08T14:14:42.162Z,21.57
2023-10-08T14:17:15.643Z,21.58
2023-10-08T14:20:00.595Z,21.57
2023-10-08T14:22:30.278Z,21.34
2023-10-08T14:25:02.042Z,21.29
2023-10-08T14:27:33.322Z,21.27
2023-10-08T14:30:06.008Z,21.22
2023-10-08T14:32:35.210Z,21.17
2023-10-08T14:35:21.504Z,21.10
2023-10-08T14:38:08.683Z,20.94
2023-10-08T14:40:54.718Z,20.76
2023-10-08T14:43:25.051Z,20.79
2023-10-08T14:45:54.573Z,20.82
2023-10-08T14:48:23.885Z,20.93
2023-10-08T14:50:52.694Z,21.04
2023-10-08T14:53:26.458Z,21.07
2023-10-08T14:55:55.096Z,21.17
2023-10-08T14:58:24.811Z,21.17
2023-10-08T15:00:55.362Z,21.16
2023-10-08T15:03:24.087Z,21.13
2023-10-08T15:05:54.011Z,21.19
2023-10-08T15:08:23.193Z,21.16
2023-10-08T15:10:53.021Z,21.14
2023-10-08T15:13:21.139Z,21.16
2023-10-08T15:15:50.403Z,21.20
2023-10-08T15:18:19.759Z,21.19
2023-10-08T15:20:48.057Z,21.06
2023-10-08T15:23:18.171Z,20.94
2023-10-08T15:25:46.686Z,20.81
2023-10-08T15:28:16.194Z,20.69
2023-10-08T15:30:45.961Z,20.52
2023-10-08T15:33:17.423Z,20.67
2023-10-08T15:35:46.238Z,20.53
2023-10-08T15:38:14.760Z,19.99
2023-10-08T15:40:45.541Z,20.18
2023-10-08T15:43:13.717Z,20.15
2023-10-08T15:45:43.609Z,19.98
2023-10-08T15:48:11.903Z,19.95
2023-10-08T15:50:41.082Z,19.93
2023-10-08T15:53:09.817Z,19.88
2023-10-08T15:55:38.045Z,19.85
2023-10-08T15:58:07.056Z,19.77
2023-10-08T16:00:35.642Z,19.65
2023-10-08T16:03:06.918Z,19.56
2023-10-08T16:05:35.568Z,19.49
2023-10-08T16:08:04.020Z,19.45
2023-10-08T16:10:32.235Z,19.41
2023-10-08T16:13:00.359Z,19.33
2023-10-08T16:15:28.902Z,19.24
2023-10-08T16:17:57.562Z,19.12
2023-10-08T16:20:27.645Z,19.08
2023-10-08T16:22:56.060Z,18.99
2023-10-08T16:25:24.490Z,18.92
2023-10-08T16:27:54.525Z,18.82
2023-10-08T16:30:25.377Z,18.60
2023-10-08T16:32:54.123Z,18.64
2023-10-08T16:35:25.753Z,18.61
2023-10-08T16:37:57.230Z,18.58
2023-10-08T16:40:26.013Z,18.53
2023-10-08T16:42:54.197Z,18.47
2023-10-08T16:45:22.998Z,18.42
2023-10-08T16:47:52.885Z,18.40
2023-10-08T16:50:21.564Z,18.37
2023-10-08T16:52:50.083Z,18.34
2023-10-08T16:55:19.983Z,18.31
2023-10-08T16:57:48.462Z,18.27
2023-10-08T17:00:16.858Z,18.22
2023-10-08T17:02:45.471Z,18.17
2023-10-08T17:05:16.267Z,18.13
2023-10-08T17:07:46.288Z,18.13
2023-10-08T17:10:15.562Z,18.11
2023-10-08T17:12:45.221Z,18.12
2023-10-08T17:15:16.059Z,18.08
2023-10-08T17:17:44.921Z,18.04
2023-10-08T17:20:18.259Z,18.01
2023-10-08T17:22:46.899Z,18.11
2023-10-08T17:25:15.699Z,18.10
2023-10-08T17:27:48.538Z,18.09
2023-10-08T17:30:25.115Z,18.09
2023-10-08T17:32:53.895Z,18.04
2023-10-08T17:35:22.478Z,18.00
2023-10-08T17:37:53.612Z,17.99
2023-10-08T17:40:23.766Z,17.86
2023-10-08T17:42:53.992Z,17.91
2023-10-08T17:45:25.951Z,17.89
2023-10-08T17:47:54.715Z,17.90
2023-10-08T17:50:23.109Z,17.93
2023-10-08T17:52:51.524Z,17.92
2023-10-08T17:55:21.470Z,17.92
2023-10-08T17:57:50.349Z,17.84
2023-10-08T18:00:22.194Z,17.83
2023-10-08T18:02:51.662Z,17.84
2023-10-08T18:05:21.281Z,17.83
2023-10-08T18:07:51.307Z,17.85
2023-10-08T18:10:22.086Z,17.85
2023-10-08T18:12:51.883Z,17.86
2023-10-08T18:15:24.481Z,17.87
2023-10-08T18:17:54.523Z,17.69
2023-10-08T18:20:34.132Z,17.84
2023-10-08T18:23:02.616Z,17.87
2023-10-08T18:25:32.559Z,17.85
2023-10-08T18:28:00.898Z,17.77
2023-10-08T18:30:31.792Z,17.72
2023-10-08T18:33:00.650Z,17.73
2023-10-08T18:35:31.136Z,17.70
2023-10-08T18:38:01.364Z,17.71
2023-10-08T18:40:33.627Z,17.61
2023-10-08T18:43:01.886Z,17.59
2023-10-08T18:45:31.690Z,17.54
2023-10-08T18:48:00.643Z,17.47
2023-10-08T18:50:28.996Z,17.45
2023-10-08T18:52:58.102Z,17.36
2023-10-08T18:55:39.154Z,17.29
2023-10-08T18:58:18.431Z,17.21
2023-10-08T19:00:49.051Z,17.17
2023-10-08T19:03:17.626Z,17.08
2023-10-08T19:05:46.161Z,17.10
2023-10-08T19:08:15.935Z,17.10
2023-10-08T19:10:44.652Z,17.10
2023-10-08T19:13:12.770Z,17.10
2023-10-08T19:15:40.919Z,17.12
2023-10-08T19:18:11.037Z,17.11
2023-10-08T19:20:39.973Z,17.09
2023-10-08T19:23:09.534Z,17.08
2023-10-08T19:25:40.814Z,17.07
2023-10-08T19:28:12.231Z,17.09
2023-10-08T19:30:43.061Z,17.07
2023-10-08T19:33:14.421Z,17.07
2023-10-08T19:35:45.965Z,17.05
2023-10-08T19:38:14.463Z,17.04
2023-10-08T19:40:43.139Z,17.03
2023-10-08T19:43:11.248Z,17.03
2023-10-08T19:45:40.861Z,17.04
2023-10-08T19:48:11.573Z,17.04
2023-10-08T19:50:43.008Z,17.05
2023-10-08T19:53:12.095Z,17.05
2023-10-08T19:55:47.547Z,17.06
2023-10-08T19:58:17.658Z,17.05
2023-10-08T20:00:46.049Z,17.04
2023-10-08T20:03:14.762Z,17.04
2023-10-08T20:05:45.561Z,17.06
2023-10-08T20:08:14.062Z,17.05
2023-10-08T20:10:44.961Z,17.04
2023-10-08T20:13:16.171Z,17.01
2023-10-08T20:15:46.061Z,17.00
2023-10-08T20:18:14.520Z,16.96
2023-10-08T20:20:44.412Z,17.01
2023-10-08T20:23:13.456Z,17.03
2023-10-08T20:25:42.738Z,17.02
2023-10-08T20:28:12.057Z,17.01
2023-10-08T20:30:45.094Z,17.00
2023-10-08T20:33:14.093Z,16.99
2023-10-08T20:35:45.580Z,16.99
2023-10-08T20:38:13.974Z,16.99
2023-10-08T20:40:44.828Z,16.99
2023-10-08T20:43:12.822Z,16.99
2023-10-08T20:45:42.101Z,16.99
2023-10-08T20:48:14.679Z,17.00
2023-10-08T20:50:46.069Z,16.99
2023-10-08T20:53:17.426Z,16.95
2023-10-08T20:55:47.106Z,16.95
2023-10-08T20:58:18.920Z,16.93
2023-10-08T21:00:48.159Z,16.92
2023-10-08T21:03:17.766Z,16.88
2023-10-08T21:05:48.062Z,16.88
2023-10-08T21:08:17.506Z,16.88
2023-10-08T21:13:18.430Z,16.88
2023-10-08T21:15:48.316Z,16.89
2023-10-08T21:18:16.688Z,16.90
2023-10-08T21:20:50.531Z,16.89
2023-10-08T21:23:18.883Z,16.89
2023-10-08T21:25:47.201Z,16.88
2023-10-08T21:28:15.445Z,16.88
2023-10-08T21:30:43.884Z,16.84
2023-10-08T21:33:12.184Z,16.86
2023-10-08T21:35:40.295Z,16.86
2023-10-08T21:38:11.522Z,16.86
2023-10-08T21:40:40.896Z,16.88
2023-10-08T21:43:09.428Z,16.87
2023-10-08T21:45:38.420Z,16.86
2023-10-08T21:48:07.330Z,16.85
2023-10-08T21:50:36.914Z,16.86
2023-10-08T21:53:06.614Z,16.88
2023-10-08T21:55:36.649Z,16.92
2023-10-08T21:58:05.403Z,16.90
2023-10-08T22:00:50.281Z,16.92
2023-10-08T22:03:19.541Z,16.94
2023-10-08T22:05:47.683Z,16.94
2023-10-08T22:08:16.829Z,16.95
2023-10-08T22:10:49.958Z,16.95
2023-10-08T22:13:18.829Z,16.96
2023-10-08T22:15:48.558Z,16.95
2023-10-08T22:18:35.019Z,16.94
2023-10-08T22:21:08.801Z,16.94
2023-10-08T22:23:40.129Z,16.93
2023-10-08T22:26:15.140Z,16.93
2023-10-08T22:28:45.234Z,16.93
2023-10-08T22:31:17.008Z,16.91
2023-10-08T22:33:49.191Z,16.93
2023-10-08T22:36:29.780Z,16.93
2023-10-08T22:38:58.490Z,16.94
2023-10-08T22:41:38.112Z,16.93
2023-10-08T22:44:06.874Z,16.96
2023-10-08T22:46:42.984Z,16.97
2023-10-08T22:49:22.085Z,16.95
2023-10-08T22:51:51.338Z,16.94
2023-10-08T22:54:20.450Z,16.93
2023-10-08T22:56:52.814Z,16.92
2023-10-08T22:59:21.458Z,16.90
2023-10-08T23:01:54.310Z,16.92
2023-10-08T23:04:24.015Z,16.91
2023-10-08T23:06:52.111Z,16.91
2023-10-08T23:09:25.978Z,16.93
2023-10-08T23:11:56.767Z,16.90
2023-10-08T23:14:25.565Z,16.88
2023-10-08T23:16:53.595Z,16.89
2023-10-08T23:19:22.375Z,16.86
2023-10-08T23:21:52.989Z,16.88
2023-10-08T23:24:23.217Z,16.88
2023-10-08T23:26:51.554Z,16.87
2023-10-08T23:29:20.995Z,16.87
2023-10-08T23:31:50.179Z,16.87
2023-10-08T23:34:18.617Z,16.80
2023-10-08T23:36:52.550Z,16.85
2023-10-08T23:39:27.019Z,16.79
2023-10-08T23:42:02.378Z,16.79
2023-10-08T23:44:32.536Z,16.79
2023-10-08T23:47:07.377Z,16.80
2023-10-08T23:49:48.368Z,16.81
2023-10-08T23:52:23.797Z,16.84
2023-10-08T23:54:58.685Z,16.88
2023-10-08T23:57:40.794Z,16.88
